createdAt,value
2017-05-29T00:00:41.086Z,18.96
2017-05-29T00:01:51.448Z,18.94
2017-05-29T00:03:01.841Z,18.94
2017-05-29T00:04:12.193Z,18.9
2017-05-29T00:05:22.556Z,18.93
2017-05-29T00:06:32.903Z,18.9
2017-05-29T00:07:43.267Z,18.9
2017-05-29T00:08:53.329Z,18.87
2017-05-29T00:10:03.682Z,18.89
2017-05-29T00:11:14.021Z,18.86
2017-05-29T00:12:24.045Z,18.84
2017-05-29T00:13:34.387Z,18.78
2017-05-29T00:14:44.739Z,18.68
2017-05-29T00:15:55.098Z,18.69
2017-05-29T00:17:05.461Z,18.68
2017-05-29T00:18:15.800Z,18.63
2017-05-29T00:19:26.154Z,18.56
2017-05-29T00:20:35.917Z,18.57
2017-05-29T00:21:45.642Z,18.6
2017-05-29T00:22:56.020Z,18.53
2017-05-29T00:24:06.365Z,18.54
2017-05-29T00:25:16.712Z,18.53
2017-05-29T00:26:27.125Z,18.53
2017-05-29T00:27:37.164Z,18.53
2017-05-29T00:28:47.510Z,18.49
2017-05-29T00:29:57.882Z,18.59
2017-05-29T00:31:07.938Z,18.59
2017-05-29T00:32:17.967Z,18.56
2017-05-29T00:33:27.995Z,18.45
2017-05-29T00:34:37.718Z,18.45
2017-05-29T00:35:47.751Z,18.53
2017-05-29T00:36:58.106Z,18.44
2017-05-29T00:38:07.817Z,18.42
2017-05-29T00:39:18.184Z,18.45
2017-05-29T00:40:28.551Z,18.47
2017-05-29T00:41:38.908Z,18.45
2017-05-29T00:42:48.934Z,18.42
2017-05-29T00:43:59.327Z,18.34
2017-05-29T00:45:09.686Z,18.27
2017-05-29T00:46:20.054Z,18.32
2017-05-29T00:47:29.771Z,18.29
2017-05-29T00:48:39.494Z,18.39
2017-05-29T00:49:49.863Z,18.27
2017-05-29T00:51:00.213Z,18.31
2017-05-29T00:52:10.239Z,18.35
2017-05-29T00:53:20.276Z,18.34
2017-05-29T00:54:30.646Z,18.32
2017-05-29T00:55:41.035Z,18.29
2017-05-29T00:56:51.381Z,18.27
2017-05-29T00:58:01.412Z,18.32
2017-05-29T00:59:11.763Z,18.34
2017-05-29T01:00:21.867Z,18.2
2017-05-29T01:01:32.227Z,18.16
2017-05-29T01:02:42.578Z,18.24
2017-05-29T01:03:52.928Z,18.23
2017-05-29T01:05:03.275Z,18.21
2017-05-29T01:06:13.626Z,18.21
2017-05-29T01:07:23.987Z,18.19
2017-05-29T01:08:34.343Z,18.17
2017-05-29T01:09:44.580Z,18.17
2017-05-29T01:10:54.630Z,18.02
2017-05-29T01:12:04.665Z,18.06
2017-05-29T01:13:15.321Z,17.98
2017-05-29T01:14:25.674Z,18.02
2017-05-29T01:15:35.718Z,17.98
2017-05-29T01:16:46.048Z,17.9
2017-05-29T01:17:56.093Z,17.92
2017-05-29T01:19:06.495Z,17.9
2017-05-29T01:20:16.550Z,17.94
2017-05-29T01:21:26.891Z,17.94
2017-05-29T01:22:37.258Z,17.96
2017-05-29T01:23:47.293Z,17.94
2017-05-29T01:24:57.347Z,17.95
2017-05-29T01:26:07.690Z,17.83
2017-05-29T01:27:18.048Z,17.86
2017-05-29T01:28:28.083Z,17.84
2017-05-29T01:29:38.441Z,17.8
2017-05-29T01:30:48.486Z,17.86
2017-05-29T01:31:58.525Z,17.81
2017-05-29T01:33:08.557Z,17.92
2017-05-29T01:34:18.899Z,17.87
2017-05-29T01:35:28.310Z,17.88
2017-05-29T01:36:38.363Z,17.94
2017-05-29T01:37:48.728Z,17.87
2017-05-29T01:38:59.075Z,17.87
2017-05-29T01:40:09.118Z,17.95
2017-05-29T01:41:19.471Z,17.87
2017-05-29T01:42:29.868Z,17.77
2017-05-29T01:43:40.226Z,17.8
2017-05-29T01:44:50.594Z,17.84
2017-05-29T01:46:00.945Z,17.77
2017-05-29T01:47:10.987Z,17.68
2017-05-29T01:48:21.025Z,17.63
2017-05-29T01:49:31.067Z,17.69
2017-05-29T01:50:41.412Z,17.68
2017-05-29T01:51:51.465Z,17.69
2017-05-29T01:53:01.816Z,17.71
2017-05-29T01:54:12.205Z,17.62
2017-05-29T01:55:22.560Z,17.62
2017-05-29T01:56:32.286Z,17.65
2017-05-29T01:57:41.995Z,17.6
2017-05-29T01:58:52.341Z,17.69
2017-05-29T02:00:02.698Z,17.65
2017-05-29T02:01:12.418Z,17.63
2017-05-29T02:02:22.501Z,17.55
2017-05-29T02:03:32.553Z,17.58
2017-05-29T02:04:42.910Z,17.46
2017-05-29T02:05:53.307Z,17.45
2017-05-29T02:07:03.664Z,17.42
2017-05-29T02:08:13.684Z,17.46
2017-05-29T02:09:23.717Z,17.49
2017-05-29T02:10:33.458Z,17.43
2017-05-29T02:11:43.802Z,17.45
2017-05-29T02:12:54.161Z,17.43
2017-05-29T02:14:04.529Z,17.42
2017-05-29T02:15:14.869Z,17.45
2017-05-29T02:16:24.903Z,17.43
2017-05-29T02:17:35.252Z,17.49
2017-05-29T02:18:45.602Z,17.47
2017-05-29T02:19:55.957Z,17.43
2017-05-29T02:21:06.299Z,17.49
2017-05-29T02:22:16.659Z,17.43
2017-05-29T02:23:27.056Z,17.52
2017-05-29T02:24:37.408Z,17.46
2017-05-29T02:25:47.755Z,17.39
2017-05-29T02:26:58.109Z,17.4
2017-05-29T02:28:08.468Z,17.38
2017-05-29T02:29:18.865Z,17.43
2017-05-29T02:30:29.234Z,17.31
2017-05-29T02:31:39.587Z,17.31
2017-05-29T02:32:49.937Z,17.24
2017-05-29T02:34:00.012Z,17.18
2017-05-29T02:35:10.125Z,17.13
2017-05-29T02:36:20.469Z,17.3
2017-05-29T02:37:30.799Z,17.24
2017-05-29T02:38:41.171Z,17.21
2017-05-29T02:39:51.527Z,17.24
2017-05-29T02:41:01.872Z,17.24
2017-05-29T02:42:11.911Z,17.21
2017-05-29T02:43:21.971Z,17.22
2017-05-29T02:44:32.009Z,17.15
2017-05-29T02:45:42.355Z,17.18
2017-05-29T02:46:52.720Z,17.24
2017-05-29T02:48:03.099Z,17.17
2017-05-29T02:49:12.821Z,17.22
2017-05-29T02:50:22.877Z,17.09
2017-05-29T02:51:33.216Z,17.13
2017-05-29T02:52:43.620Z,17.12
2017-05-29T02:53:53.972Z,17.13
2017-05-29T02:55:04.339Z,17.12
2017-05-29T02:56:14.700Z,17.12
2017-05-29T02:57:24.734Z,17.15
2017-05-29T02:58:35.094Z,17.12
2017-05-29T02:59:45.448Z,17.15
2017-05-29T03:00:55.799Z,17.17
2017-05-29T03:02:05.839Z,17.17
2017-05-29T03:33:21.378Z,14.21
2017-05-29T03:34:31.404Z,14.19
2017-05-29T03:35:41.744Z,14.2
2017-05-29T03:36:52.094Z,14.2
2017-05-29T03:38:02.444Z,14.26
2017-05-29T03:39:12.522Z,14.45
2017-05-29T03:40:22.853Z,14.51
2017-05-29T03:41:33.209Z,14.66
2017-05-29T03:42:43.552Z,14.89
2017-05-29T03:43:53.919Z,15.1
2017-05-29T03:45:03.678Z,15.26
2017-05-29T03:46:14.026Z,15.45
2017-05-29T03:47:24.059Z,15.62
2017-05-29T03:48:34.086Z,15.74
2017-05-29T03:49:44.123Z,16
2017-05-29T03:50:54.531Z,16.07
2017-05-29T03:52:04.875Z,16.29
2017-05-29T03:53:15.211Z,16.33
2017-05-29T03:54:25.290Z,16.4
2017-05-29T03:55:35.327Z,16.62
2017-05-29T03:56:45.381Z,16.67
2017-05-29T03:57:55.737Z,16.92
2017-05-29T03:59:06.098Z,17.06
2017-05-29T04:00:16.349Z,17.15
2017-05-29T04:01:26.391Z,17.27
2017-05-29T04:02:36.784Z,17.38
2017-05-29T04:03:47.131Z,17.5
2017-05-29T04:04:57.496Z,17.63
2017-05-29T04:06:07.845Z,17.73
2017-05-29T04:07:18.212Z,17.81
2017-05-29T04:08:28.289Z,17.84
2017-05-29T04:09:38.028Z,17.98
2017-05-29T04:10:48.383Z,18.01
2017-05-29T04:11:58.729Z,18.13
2017-05-29T04:13:09.068Z,18.21
2017-05-29T04:14:19.465Z,18.14
2017-05-29T04:15:29.512Z,18.32
2017-05-29T04:16:39.865Z,18.34
2017-05-29T04:17:50.280Z,18.57
2017-05-29T04:19:00.325Z,19
2017-05-29T04:20:10.678Z,20.37
2017-05-29T04:21:21.020Z,21.92
2017-05-29T04:22:31.044Z,23.16
2017-05-29T04:23:41.407Z,24.4
2017-05-29T04:24:51.452Z,25.52
2017-05-29T04:26:01.854Z,26.26
2017-05-29T04:27:11.898Z,27.15
2017-05-29T04:28:22.252Z,27.86
2017-05-29T04:29:32.594Z,28.31
2017-05-29T04:30:42.648Z,28.82
2017-05-29T04:31:52.423Z,29.2
2017-05-29T04:33:02.813Z,29.29
2017-05-29T04:34:13.170Z,29.63
2017-05-29T04:35:23.211Z,30.03
2017-05-29T04:36:33.567Z,30.52
2017-05-29T04:37:43.362Z,30.79
2017-05-29T04:38:53.736Z,31
2017-05-29T04:40:04.114Z,31.16
2017-05-29T04:41:14.485Z,31.47
2017-05-29T04:42:24.843Z,31.56
2017-05-29T04:43:35.203Z,31.34
2017-05-29T04:44:45.556Z,31.44
2017-05-29T04:45:55.617Z,31.34
2017-05-29T04:47:05.727Z,31.33
2017-05-29T04:48:16.077Z,31.52
2017-05-29T04:49:26.112Z,31.81
2017-05-29T04:50:36.469Z,32.05
2017-05-29T04:51:45.899Z,31.52
2017-05-29T04:52:56.250Z,31.38
2017-05-29T04:54:06.592Z,30.73
2017-05-29T04:55:16.951Z,30.07
2017-05-29T04:56:27.322Z,30.14
2017-05-29T04:57:37.678Z,29.42
2017-05-29T04:58:48.027Z,28.88
2017-05-29T04:59:58.382Z,28.17
2017-05-29T05:01:08.781Z,27.74
2017-05-29T05:02:19.130Z,27.06
2017-05-29T05:03:29.489Z,26.61
2017-05-29T05:04:39.841Z,26.61
2017-05-29T05:05:50.209Z,26.74
2017-05-29T05:07:00.309Z,26.96
2017-05-29T05:08:10.666Z,27.59
2017-05-29T05:09:20.710Z,28.6
2017-05-29T05:10:30.764Z,29.1
2017-05-29T05:11:41.133Z,29.51
2017-05-29T05:12:51.485Z,29.73
2017-05-29T05:14:01.527Z,30.16
2017-05-29T05:15:11.887Z,30.54
2017-05-29T05:16:22.234Z,30.82
2017-05-29T05:17:32.838Z,30.97
2017-05-29T05:18:43.241Z,31.18
2017-05-29T05:19:53.276Z,31.33
2017-05-29T05:21:03.330Z,31.47
2017-05-29T05:22:13.683Z,31.8
2017-05-29T05:23:23.716Z,31.95
2017-05-29T05:24:34.128Z,32.1
2017-05-29T05:25:44.500Z,32.28
2017-05-29T05:26:54.556Z,32.32
2017-05-29T05:28:04.620Z,32.45
2017-05-29T05:29:14.980Z,32.53
2017-05-29T05:30:25.389Z,32.47
2017-05-29T05:31:35.737Z,32.56
2017-05-29T05:32:45.784Z,32.64
2017-05-29T05:33:56.135Z,32.68
2017-05-29T05:35:06.477Z,32.8
2017-05-29T05:36:16.523Z,32.8
2017-05-29T05:37:26.875Z,32.84
2017-05-29T05:38:36.957Z,32.57
2017-05-29T05:39:47.022Z,32.52
2017-05-29T05:40:57.390Z,32.28
2017-05-29T05:42:07.503Z,32.19
2017-05-29T05:43:17.544Z,32.03
2017-05-29T05:44:27.596Z,31.72
2017-05-29T05:45:37.954Z,31.49
2017-05-29T05:46:47.695Z,31.28
2017-05-29T05:47:58.055Z,31.41
2017-05-29T05:49:08.422Z,31.5
2017-05-29T05:50:18.766Z,31.63
2017-05-29T05:51:29.137Z,31.81
2017-05-29T05:52:39.497Z,31.94
2017-05-29T05:53:49.903Z,31.86
2017-05-29T05:55:00.258Z,31.95
2017-05-29T05:56:10.304Z,31.95
2017-05-29T05:57:20.647Z,31.81
2017-05-29T05:58:30.709Z,31.87
2017-05-29T05:59:41.225Z,31.86
2017-05-29T06:00:51.579Z,31.71
2017-05-29T06:02:01.636Z,31.71
2017-05-29T06:03:11.988Z,31.68
2017-05-29T06:04:22.365Z,31.56
2017-05-29T06:05:32.767Z,31.53
2017-05-29T06:06:42.810Z,31.49
2017-05-29T06:07:53.155Z,31.41
2017-05-29T06:09:03.513Z,31.4
2017-05-29T06:10:13.875Z,31.37
2017-05-29T06:11:24.287Z,31.23
2017-05-29T06:12:34.020Z,30.89
2017-05-29T06:13:44.388Z,30.71
2017-05-29T06:14:54.759Z,30.47
2017-05-29T06:16:05.119Z,30.04
2017-05-29T06:17:15.522Z,29.81
2017-05-29T06:18:25.869Z,29.67
2017-05-29T06:19:36.219Z,29.6
2017-05-29T06:20:46.265Z,29.55
2017-05-29T06:21:56.607Z,29.66
2017-05-29T06:23:06.974Z,29.75
2017-05-29T06:24:17.025Z,29.77
2017-05-29T06:25:27.380Z,29.79
2017-05-29T06:26:37.415Z,29.61
2017-05-29T06:27:47.793Z,29.51
2017-05-29T06:28:58.154Z,29.29
2017-05-29T06:30:08.500Z,28.86
2017-05-29T06:31:18.862Z,28.58
2017-05-29T06:32:28.910Z,28.35
2017-05-29T06:33:39.270Z,28.17
2017-05-29T06:34:49.652Z,28.01
2017-05-29T06:35:59.081Z,27.98
2017-05-29T06:37:09.127Z,27.91
2017-05-29T06:38:19.189Z,27.89
2017-05-29T06:39:29.557Z,27.9
2017-05-29T06:40:39.927Z,27.86
2017-05-29T06:41:50.286Z,27.91
2017-05-29T06:43:00.344Z,27.8
2017-05-29T06:44:10.704Z,27.75
2017-05-29T06:45:20.759Z,27.62
2017-05-29T06:46:31.125Z,27.66
2017-05-29T06:47:41.189Z,27.76
2017-05-29T06:48:51.564Z,27.74
2017-05-29T06:50:01.630Z,27.69
2017-05-29T06:51:11.669Z,27.49
2017-05-29T06:52:22.090Z,27.53
2017-05-29T06:53:32.433Z,27.55
2017-05-29T06:54:42.483Z,27.55
2017-05-29T06:55:52.835Z,27.62
2017-05-29T06:57:03.197Z,27.49
2017-05-29T06:58:13.553Z,27.52
2017-05-29T06:59:23.961Z,27.52
2017-05-29T07:00:33.998Z,27.48
2017-05-29T07:01:44.039Z,27.33
2017-05-29T07:02:54.391Z,27.41
2017-05-29T07:04:04.438Z,27.34
2017-05-29T07:05:14.845Z,27.24
2017-05-29T07:06:25.244Z,27.15
2017-05-29T07:07:35.297Z,27.01
2017-05-29T07:08:45.683Z,26.91
2017-05-29T07:09:56.040Z,26.96
2017-05-29T07:11:06.463Z,26.86
2017-05-29T07:12:16.820Z,26.81
2017-05-29T07:13:27.192Z,26.81
2017-05-29T07:14:37.544Z,26.78
2017-05-29T07:15:47.895Z,26.82
2017-05-29T07:16:57.941Z,26.79
2017-05-29T07:18:07.986Z,26.87
2017-05-29T07:19:17.734Z,26.94
2017-05-29T07:20:28.288Z,26.91
2017-05-29T07:21:38.645Z,26.9
2017-05-29T07:22:49.307Z,27.04
2017-05-29T07:23:59.667Z,27.01
2017-05-29T07:25:10.014Z,27.11
2017-05-29T07:26:20.363Z,27.11
2017-05-29T07:27:30.395Z,27.18
2017-05-29T07:28:40.822Z,27.19
2017-05-29T07:29:51.178Z,27.34
2017-05-29T07:31:01.218Z,27.37
2017-05-29T07:32:11.584Z,27.38
2017-05-29T07:33:21.959Z,27.3
2017-05-29T07:34:32.062Z,27.46
2017-05-29T07:35:42.123Z,27.46
2017-05-29T07:36:52.157Z,27.61
2017-05-29T07:38:02.232Z,27.69
2017-05-29T07:39:12.300Z,27.84
2017-05-29T07:40:22.726Z,27.87
2017-05-29T07:41:33.098Z,28.02
2017-05-29T07:42:43.456Z,27.99
2017-05-29T07:43:53.499Z,28.16
2017-05-29T07:45:03.213Z,28.21
2017-05-29T07:46:13.586Z,28.26
2017-05-29T07:47:23.622Z,28.48
2017-05-29T07:48:33.669Z,28.49
2017-05-29T07:49:44.015Z,28.65
2017-05-29T07:50:54.353Z,28.65
2017-05-29T07:52:04.386Z,28.82
2017-05-29T07:53:14.746Z,28.8
2017-05-29T07:54:25.108Z,28.94
2017-05-29T07:55:35.464Z,28.98
2017-05-29T07:56:45.508Z,29.1
2017-05-29T07:57:55.600Z,29.18
2017-05-29T07:59:05.964Z,29.21
2017-05-29T08:00:15.767Z,29.2
2017-05-29T08:01:26.129Z,29.26
2017-05-29T08:02:36.501Z,29.14
2017-05-29T08:03:46.858Z,29.05
2017-05-29T08:04:57.223Z,29.02
2017-05-29T08:06:07.569Z,29.08
2017-05-29T08:07:17.931Z,29.11
2017-05-29T08:08:27.664Z,29.17
2017-05-29T08:09:38.060Z,29.06
2017-05-29T08:10:48.424Z,29.1
2017-05-29T08:11:58.795Z,29.13
2017-05-29T08:13:08.838Z,29.11
2017-05-29T08:14:19.208Z,29.21
2017-05-29T08:15:29.319Z,29.28
2017-05-29T08:16:39.345Z,29.35
2017-05-29T08:17:49.383Z,29.43
2017-05-29T08:18:59.440Z,29.47
2017-05-29T08:20:09.780Z,29.43
2017-05-29T08:21:19.877Z,29.42
2017-05-29T08:22:29.922Z,29.14
2017-05-29T08:23:39.967Z,29.01
2017-05-29T08:24:50.023Z,28.85
2017-05-29T08:26:00.368Z,28.83
2017-05-29T08:27:09.836Z,28.73
2017-05-29T08:28:20.204Z,28.48
2017-05-29T08:29:30.250Z,28.41
2017-05-29T08:30:40.315Z,28.38
2017-05-29T08:31:50.368Z,28.55
2017-05-29T08:33:00.780Z,28.6
2017-05-29T08:34:11.143Z,28.82
2017-05-29T08:35:21.498Z,28.92
2017-05-29T08:36:31.877Z,29.06
2017-05-29T08:37:42.247Z,29.23
2017-05-29T08:38:51.981Z,29.24
2017-05-29T08:40:02.027Z,29.35
2017-05-29T08:41:12.388Z,29.29
2017-05-29T08:42:22.756Z,29.36
2017-05-29T08:43:33.105Z,29.35
2017-05-29T08:44:43.478Z,29.32
2017-05-29T08:45:53.845Z,29.23
2017-05-29T08:47:04.202Z,29.35
2017-05-29T08:48:14.594Z,29.48
2017-05-29T08:49:24.951Z,29.45
2017-05-29T08:50:35.305Z,29.45
2017-05-29T08:51:45.660Z,29.42
2017-05-29T08:52:56.025Z,29.52
2017-05-29T08:54:06.391Z,29.67
2017-05-29T08:55:16.429Z,29.61
2017-05-29T08:56:26.781Z,29.63
2017-05-29T08:57:37.210Z,29.58
2017-05-29T08:58:46.930Z,29.73
2017-05-29T08:59:56.734Z,29.77
2017-05-29T09:01:07.096Z,29.91
2017-05-29T09:02:17.503Z,29.98
2017-05-29T09:03:27.866Z,30.07
2017-05-29T09:04:38.233Z,30.04
2017-05-29T09:05:48.276Z,30.13
2017-05-29T09:06:58.327Z,30.02
2017-05-29T09:08:08.415Z,30.02
2017-05-29T09:09:18.450Z,30.06
2017-05-29T09:10:28.490Z,30.02
2017-05-29T09:11:38.861Z,30.02
2017-05-29T09:12:49.515Z,29.95
2017-05-29T09:13:59.990Z,29.97
2017-05-29T09:15:10.668Z,30
2017-05-29T09:16:21.363Z,30.02
2017-05-29T09:17:31.704Z,30.06
2017-05-29T09:18:41.881Z,30.03
2017-05-29T09:19:51.663Z,30.07
2017-05-29T09:21:02.036Z,30.09
2017-05-29T09:22:12.401Z,30.1
2017-05-29T09:23:22.784Z,30.1
2017-05-29T09:24:33.139Z,30.14
2017-05-29T09:25:43.210Z,30.24
2017-05-29T09:26:53.230Z,30.42
2017-05-29T09:28:03.596Z,30.48
2017-05-29T09:29:13.960Z,30.47
2017-05-29T09:30:24.310Z,30.6
2017-05-29T09:31:34.332Z,30.48
2017-05-29T09:32:44.706Z,30.48
2017-05-29T09:33:55.068Z,30.48
2017-05-29T09:35:05.422Z,30.54
2017-05-29T09:36:15.783Z,30.52
2017-05-29T09:37:26.191Z,30.56
2017-05-29T09:38:36.563Z,30.71
2017-05-29T09:39:46.612Z,30.57
2017-05-29T09:40:56.353Z,30.71
2017-05-29T09:42:06.404Z,30.69
2017-05-29T09:43:16.457Z,30.73
2017-05-29T09:44:26.824Z,30.73
2017-05-29T09:45:37.174Z,30.77
2017-05-29T09:46:47.542Z,30.79
2017-05-29T09:47:57.981Z,30.82
2017-05-29T09:49:08.338Z,30.94
2017-05-29T09:50:18.381Z,30.96
2017-05-29T09:51:28.791Z,31.04
2017-05-29T09:52:39.158Z,31.04
2017-05-29T09:53:49.574Z,31.13
2017-05-29T09:54:59.341Z,31.15
2017-05-29T09:56:09.413Z,31.26
2017-05-29T09:57:19.769Z,31.23
2017-05-29T09:58:30.121Z,31.28
2017-05-29T09:59:40.522Z,31.18
2017-05-29T10:00:50.569Z,31.21
2017-05-29T10:02:00.632Z,31.22
2017-05-29T10:03:11.009Z,31.21
2017-05-29T10:04:21.363Z,31.33
2017-05-29T10:05:31.412Z,31.49
2017-05-29T10:06:41.459Z,31.47
2017-05-29T10:07:51.824Z,31.65
2017-05-29T10:09:01.574Z,31.75
2017-05-29T10:10:11.939Z,31.9
2017-05-29T10:11:22.350Z,31.94
2017-05-29T10:12:32.394Z,32
2017-05-29T10:13:42.441Z,32.1
2017-05-29T10:14:52.800Z,32.19
2017-05-29T10:16:02.836Z,32.28
2017-05-29T10:17:13.246Z,32.45
2017-05-29T10:18:23.605Z,32.43
2017-05-29T10:19:33.946Z,32.67
2017-05-29T10:20:44.314Z,32.71
2017-05-29T10:21:54.672Z,32.81
2017-05-29T10:23:04.709Z,32.87
2017-05-29T10:24:15.085Z,32.87
2017-05-29T10:25:25.441Z,32.9
2017-05-29T10:26:35.796Z,32.9
2017-05-29T10:27:46.148Z,32.86
2017-05-29T10:28:56.543Z,32.79
2017-05-29T10:30:06.590Z,32.8
2017-05-29T10:31:16.943Z,32.74
2017-05-29T10:32:27.312Z,32.72
2017-05-29T10:33:37.661Z,32.61
2017-05-29T10:34:48.077Z,32.45
2017-05-29T10:35:58.431Z,32.5
2017-05-29T10:37:08.794Z,32.52
2017-05-29T10:38:19.377Z,32.57
2017-05-29T10:39:29.414Z,32.76
2017-05-29T10:40:39.832Z,32.93
2017-05-29T10:41:50.201Z,33.05
2017-05-29T10:43:00.237Z,33.09
2017-05-29T10:44:10.289Z,33.17
2017-05-29T10:45:20.642Z,33.13
2017-05-29T10:46:31.043Z,33.06
2017-05-29T10:47:41.070Z,33.12
2017-05-29T10:48:51.436Z,33.05
2017-05-29T10:50:01.805Z,33.01
2017-05-29T10:51:11.867Z,33.01
2017-05-29T10:52:22.284Z,32.99
2017-05-29T10:53:31.702Z,33.02
2017-05-29T10:54:41.436Z,33.02
2017-05-29T10:55:51.476Z,33.18
2017-05-29T10:57:01.520Z,33.31
2017-05-29T10:58:11.297Z,33.32
2017-05-29T10:59:21.333Z,33.34
2017-05-29T11:00:31.698Z,33.39
2017-05-29T11:01:42.081Z,33.5
2017-05-29T11:02:52.133Z,33.5
2017-05-29T11:04:02.231Z,33.58
2017-05-29T11:05:12.295Z,33.62
2017-05-29T11:06:22.659Z,33.73
2017-05-29T11:07:32.715Z,33.73
2017-05-29T11:08:43.079Z,33.75
2017-05-29T11:09:52.863Z,33.73
2017-05-29T11:11:02.891Z,33.63
2017-05-29T11:12:13.234Z,33.59
2017-05-29T11:13:23.585Z,33.58
2017-05-29T11:14:33.646Z,33.58
2017-05-29T11:15:43.747Z,33.62
2017-05-29T11:16:54.119Z,33.63
2017-05-29T11:18:04.483Z,33.58
2017-05-29T11:19:14.842Z,33.69
2017-05-29T11:20:24.945Z,33.74
2017-05-29T11:21:35.348Z,33.87
2017-05-29T11:22:45.415Z,33.84
2017-05-29T11:23:54.856Z,33.84
2017-05-29T11:25:04.897Z,33.81
2017-05-29T11:26:15.250Z,33.89
2017-05-29T11:27:25.674Z,33.9
2017-05-29T11:28:36.029Z,33.9
2017-05-29T11:29:46.385Z,33.84
2017-05-29T11:30:56.754Z,33.71
2017-05-29T11:32:07.122Z,33.75
2017-05-29T11:33:17.527Z,33.89
2017-05-29T11:34:27.879Z,33.9
2017-05-29T11:35:38.219Z,34.08
2017-05-29T11:36:48.580Z,34.14
2017-05-29T11:37:58.602Z,34.19
2017-05-29T11:39:09.015Z,34.4
2017-05-29T11:40:19.405Z,34.36
2017-05-29T11:41:29.780Z,34.39
2017-05-29T11:42:40.140Z,34.55
2017-05-29T11:43:50.503Z,34.67
2017-05-29T11:45:00.864Z,34.74
2017-05-29T11:46:11.223Z,34.83
2017-05-29T11:47:21.262Z,34.9
2017-05-29T11:48:31.631Z,34.93
2017-05-29T11:49:42.004Z,35.01
2017-05-29T11:50:51.825Z,35.06
2017-05-29T11:52:02.196Z,35.06
2017-05-29T11:53:12.231Z,35.04
2017-05-29T11:54:22.581Z,34.94
2017-05-29T11:55:32.932Z,35.02
2017-05-29T11:56:43.590Z,34.9
2017-05-29T11:57:53.632Z,34.87
2017-05-29T11:59:04.045Z,34.83
2017-05-29T12:00:14.414Z,34.78
2017-05-29T12:01:24.795Z,34.72
2017-05-29T12:02:35.242Z,34.67
2017-05-29T12:03:45.652Z,34.59
2017-05-29T12:04:55.705Z,34.52
2017-05-29T12:06:06.055Z,34.37
2017-05-29T12:07:16.111Z,34.33
2017-05-29T12:08:26.464Z,34.19
2017-05-29T12:09:36.825Z,34.27
2017-05-29T12:10:47.192Z,34.4
2017-05-29T12:11:57.557Z,34.33
2017-05-29T12:13:07.595Z,34.32
2017-05-29T12:14:17.701Z,34.37
2017-05-29T12:15:28.055Z,34.4
2017-05-29T12:16:38.431Z,34.19
2017-05-29T12:17:48.479Z,34.18
2017-05-29T12:18:58.836Z,34.37
2017-05-29T12:20:09.265Z,34.37
2017-05-29T12:21:19.627Z,34.36
2017-05-29T12:22:29.984Z,34.27
2017-05-29T12:23:40.338Z,34.24
2017-05-29T12:24:50.403Z,34.24
2017-05-29T12:26:00.808Z,34.12
2017-05-29T12:27:11.420Z,34.08
2017-05-29T12:28:21.489Z,34.11
2017-05-29T12:29:31.860Z,34.17
2017-05-29T12:30:42.251Z,34.06
2017-05-29T12:31:52.617Z,34.02
2017-05-29T12:33:02.996Z,34.21
2017-05-29T12:34:13.362Z,34.19
2017-05-29T12:35:23.103Z,34.26
2017-05-29T12:36:33.467Z,34.3
2017-05-29T12:37:43.829Z,34.39
2017-05-29T12:38:53.250Z,34.41
2017-05-29T12:40:03.311Z,34.52
2017-05-29T12:41:13.666Z,34.64
2017-05-29T12:42:24.030Z,34.67
2017-05-29T12:43:34.123Z,34.75
2017-05-29T12:44:44.494Z,34.77
2017-05-29T12:45:55.053Z,34.79
2017-05-29T12:47:05.437Z,34.83
2017-05-29T12:48:15.982Z,34.83
2017-05-29T12:49:26.091Z,34.84
2017-05-29T12:50:36.147Z,34.96
2017-05-29T12:51:46.513Z,34.97
2017-05-29T12:52:56.566Z,35.05
2017-05-29T12:54:06.929Z,35.13
2017-05-29T12:55:16.971Z,35.16
2017-05-29T12:56:27.019Z,35.2
2017-05-29T12:57:37.381Z,35.21
2017-05-29T12:58:47.441Z,35.13
2017-05-29T12:59:57.799Z,35.11
2017-05-29T13:01:08.217Z,35.08
2017-05-29T13:02:18.254Z,35.12
2017-05-29T13:03:28.622Z,35.09
2017-05-29T13:04:38.988Z,35.08
2017-05-29T13:05:49.308Z,35.09
2017-05-29T13:06:59.719Z,35.06
2017-05-29T13:08:09.765Z,34.99
2017-05-29T13:09:20.121Z,34.93
2017-05-29T13:10:30.472Z,34.86
2017-05-29T13:11:40.856Z,34.83
2017-05-29T13:12:50.973Z,34.86
2017-05-29T13:14:01.341Z,34.78
2017-05-29T13:15:11.708Z,34.83
2017-05-29T13:16:22.071Z,34.84
2017-05-29T13:17:32.483Z,34.79
2017-05-29T13:18:42.899Z,34.87
2017-05-29T13:19:53.270Z,34.94
2017-05-29T13:21:03.007Z,34.97
2017-05-29T13:22:13.055Z,35.12
2017-05-29T13:23:23.413Z,35.08
2017-05-29T13:24:33.523Z,34.9
2017-05-29T13:25:43.584Z,34.89
2017-05-29T13:26:53.955Z,34.83
2017-05-29T13:28:04.491Z,34.78
2017-05-29T13:29:14.260Z,34.78
2017-05-29T13:30:24.377Z,34.83
2017-05-29T13:31:34.455Z,34.9
2017-05-29T13:32:44.826Z,34.93
2017-05-29T13:33:55.188Z,34.91
2017-05-29T13:35:05.246Z,35.09
2017-05-29T13:36:15.352Z,35.11
2017-05-29T13:37:25.717Z,35.27
2017-05-29T13:38:35.758Z,35.27
2017-05-29T13:39:45.487Z,35.13
2017-05-29T13:40:55.564Z,35.16
2017-05-29T13:42:06.189Z,35.12
2017-05-29T13:43:16.551Z,35.16
2017-05-29T13:44:26.920Z,35.27
2017-05-29T13:45:37.295Z,35.18
2017-05-29T13:46:47.349Z,35.09
2017-05-29T13:47:57.762Z,35.01
2017-05-29T13:49:07.808Z,35.01
2017-05-29T13:50:18.172Z,34.99
2017-05-29T13:51:28.539Z,34.87
2017-05-29T13:52:38.928Z,34.81
2017-05-29T13:53:49.422Z,34.86
2017-05-29T13:54:59.476Z,34.69
2017-05-29T13:56:09.837Z,34.67
2017-05-29T13:57:20.213Z,34.64
2017-05-29T13:58:29.951Z,34.67
2017-05-29T13:59:40.353Z,34.72
2017-05-29T14:00:50.399Z,34.74
2017-05-29T14:02:00.775Z,34.66
2017-05-29T14:03:11.129Z,34.67
2017-05-29T14:04:21.196Z,34.67
2017-05-29T14:05:31.437Z,34.61
2017-05-29T14:06:42.018Z,34.49
2017-05-29T14:07:52.390Z,34.52
2017-05-29T14:09:02.442Z,34.43
2017-05-29T14:10:12.684Z,34.39
2017-05-29T14:11:23.115Z,34.41
2017-05-29T14:12:33.464Z,34.3
2017-05-29T14:13:43.840Z,34.4
2017-05-29T14:14:53.935Z,34.36
2017-05-29T14:16:04.302Z,34.33
2017-05-29T14:17:14.737Z,34.39
2017-05-29T14:18:24.797Z,34.39
2017-05-29T14:19:35.171Z,34.27
2017-05-29T14:20:45.204Z,34.14
2017-05-29T14:21:55.540Z,34.24
2017-05-29T14:23:05.852Z,34.22
2017-05-29T14:24:15.918Z,34.21
2017-05-29T14:25:26.266Z,34.26
2017-05-29T14:26:36.640Z,34.15
2017-05-29T14:27:46.689Z,34.21
2017-05-29T14:28:56.483Z,34.22
2017-05-29T14:30:06.240Z,34.24
2017-05-29T14:31:16.629Z,34.19
2017-05-29T14:32:26.687Z,34.22
2017-05-29T14:33:37.067Z,34.19
2017-05-29T14:34:47.168Z,34.18
2017-05-29T14:35:57.531Z,34.21
2017-05-29T14:37:07.586Z,34.22
2017-05-29T14:38:17.939Z,34.17
2017-05-29T14:39:28.295Z,34.26
2017-05-29T14:40:38.893Z,34.21
2017-05-29T14:41:49.252Z,34.26
2017-05-29T14:42:59.312Z,34.29
2017-05-29T14:44:09.766Z,34.29
2017-05-29T14:45:20.138Z,34.34
2017-05-29T14:46:29.605Z,34.17
2017-05-29T14:47:39.979Z,34.32
2017-05-29T14:48:49.714Z,34.3
2017-05-29T14:50:00.090Z,34.34
2017-05-29T14:51:10.174Z,34.17
2017-05-29T14:52:20.603Z,34.21
2017-05-29T14:53:30.965Z,34.19
2017-05-29T14:54:41.016Z,34.15
2017-05-29T14:55:51.439Z,34.22
2017-05-29T14:57:01.812Z,34.18
2017-05-29T14:58:12.256Z,34.21
2017-05-29T14:59:22.318Z,34.27
2017-05-29T15:00:32.369Z,34.21
2017-05-29T15:01:42.746Z,34.24
2017-05-29T15:02:53.111Z,34.39
2017-05-29T15:04:03.535Z,34.33
2017-05-29T15:05:13.899Z,34.36
2017-05-29T15:06:23.944Z,34.46
2017-05-29T15:07:33.999Z,34.4
2017-05-29T15:08:44.050Z,34.39
2017-05-29T15:09:54.422Z,34.3
2017-05-29T15:11:04.461Z,34.33
2017-05-29T15:12:14.514Z,34.22
2017-05-29T15:13:24.903Z,34.24
2017-05-29T15:14:35.280Z,34.12
2017-05-29T15:15:45.708Z,34.15
2017-05-29T15:16:55.466Z,34.15
2017-05-29T15:18:05.531Z,34.32
2017-05-29T15:19:15.919Z,34.36
2017-05-29T15:20:26.299Z,34.36
2017-05-29T15:21:36.715Z,34.27
2017-05-29T15:22:46.447Z,34.34
2017-05-29T15:23:56.812Z,34.37
2017-05-29T15:25:06.545Z,34.24
2017-05-29T15:26:16.926Z,34.14
2017-05-29T15:27:27.350Z,34.11
2017-05-29T15:28:37.725Z,34.03
2017-05-29T15:29:48.114Z,34.02
2017-05-29T15:30:58.475Z,34.1
2017-05-29T15:32:08.215Z,34.08
2017-05-29T15:33:18.609Z,34.03
2017-05-29T15:34:28.976Z,33.97
2017-05-29T15:35:39.343Z,33.97
2017-05-29T15:36:49.382Z,33.84
2017-05-29T15:37:59.756Z,33.84